createdAt,value
2018-01-15T00:00:22.609Z,0
2018-01-15T00:01:07.945Z,0
2018-01-15T00:03:07.958Z,0
2018-01-15T00:04:07.971Z,0
2018-01-15T00:05:07.982Z,0
2018-01-15T00:07:08.239Z,0
2018-01-15T00:08:22.710Z,0
2018-01-15T00:09:08.011Z,0
2018-01-15T00:10:08.295Z,0
2018-01-15T00:11:08.066Z,0
2018-01-15T00:12:08.313Z,0
2018-01-15T00:13:08.335Z,0
2018-01-15T00:14:08.352Z,0
2018-01-15T00:15:08.329Z,0
2018-01-15T00:16:23.029Z,0
2018-01-15T00:17:22.808Z,0
2018-01-15T00:18:08.399Z,0
2018-01-15T00:19:08.370Z,0
2018-01-15T00:20:08.173Z,0
2018-01-15T00:21:08.433Z,0
2018-01-15T00:22:22.593Z,0
2018-01-15T00:23:23.099Z,0
2018-01-15T00:24:08.466Z,0
2018-01-15T00:25:08.210Z,0
2018-01-15T00:26:07.952Z,0
2018-01-15T00:27:07.967Z,0
2018-01-15T00:28:08.226Z,0
2018-01-15T00:29:08.519Z,0
2018-01-15T00:30:08.515Z,0
2018-01-15T00:31:08.541Z,0
2018-01-15T00:32:08.062Z,0
2018-01-15T00:33:23.259Z,0
2018-01-15T00:34:08.564Z,0
2018-01-15T00:35:08.674Z,0
2018-01-15T00:36:08.090Z,0
2018-01-15T00:37:08.344Z,0
2018-01-15T00:39:08.641Z,0
2018-01-15T00:40:22.804Z,0
2018-01-15T00:41:08.662Z,0
2018-01-15T00:42:08.683Z,0
2018-01-15T00:43:08.436Z,0
2018-01-15T00:44:08.438Z,0
2018-01-15T00:45:08.430Z,0
2018-01-15T00:46:08.538Z,0
2018-01-15T00:47:08.460Z,0
2018-01-15T00:48:08.468Z,0
2018-01-15T00:49:23.172Z,0
2018-01-15T00:50:08.744Z,0
2018-01-15T00:51:08.743Z,0
2018-01-15T00:52:08.510Z,0
2018-01-15T00:54:08.268Z,0
2018-01-15T00:55:08.561Z,0
2018-01-15T00:56:23.465Z,0
2018-01-15T00:57:08.818Z,0
2018-01-15T00:58:08.841Z,0
2018-01-15T00:59:08.845Z,0
2018-01-15T01:00:08.871Z,0
2018-01-15T01:01:08.865Z,0
2018-01-15T01:02:08.939Z,0
2018-01-15T01:03:08.888Z,0
2018-01-15T01:04:08.881Z,0
2018-01-15T01:05:08.907Z,0
2018-01-15T01:07:08.684Z,0
2018-01-15T01:08:08.937Z,0
2018-01-15T01:09:08.724Z,0
2018-01-15T01:10:08.969Z,0
2018-01-15T01:11:23.631Z,0
2018-01-15T01:12:23.666Z,0
2018-01-15T01:13:09.001Z,0
2018-01-15T01:15:09.009Z,0
2018-01-15T01:16:09.054Z,0
2018-01-15T01:17:09.042Z,0
2018-01-15T01:18:09.041Z,0
2018-01-15T01:19:09.084Z,0
2018-01-15T01:21:09.094Z,0
2018-01-15T01:22:08.595Z,0
2018-01-15T01:23:08.878Z,0
2018-01-15T01:24:09.124Z,0
2018-01-15T01:25:09.137Z,0
2018-01-15T01:26:09.148Z,0
2018-01-15T01:27:08.646Z,0
2018-01-15T01:28:23.866Z,0
2018-01-15T01:29:09.155Z,0
2018-01-15T01:30:09.180Z,0
2018-01-15T01:31:09.226Z,0
2018-01-15T01:32:08.941Z,0
2018-01-15T01:33:09.221Z,0
2018-01-15T01:34:08.963Z,0
2018-01-15T01:35:23.949Z,0
2018-01-15T01:36:09.316Z,0
2018-01-15T01:37:08.760Z,0
2018-01-15T01:38:09.342Z,0
2018-01-15T01:39:09.062Z,0
2018-01-15T01:40:09.318Z,0
2018-01-15T01:41:09.302Z,0
2018-01-15T01:42:09.069Z,0
2018-01-15T01:43:38.682Z,0
2018-01-15T01:44:09.123Z,0
2018-01-15T01:45:09.400Z,0
2018-01-15T01:46:08.864Z,0
2018-01-15T01:47:09.368Z,0
2018-01-15T01:48:09.415Z,0
2018-01-15T01:49:09.389Z,0
2018-01-15T01:50:09.421Z,0
2018-01-15T01:51:24.203Z,0
2018-01-15T01:52:24.146Z,0
2018-01-15T01:53:09.197Z,0
2018-01-15T01:54:08.712Z,0
2018-01-15T01:55:09.468Z,0
2018-01-15T01:56:08.969Z,0
2018-01-15T01:57:09.249Z,0
2018-01-15T01:58:09.235Z,0
2018-01-15T01:59:09.254Z,0
2018-01-15T02:00:09.262Z,0
2018-01-15T02:02:09.548Z,0
2018-01-15T02:03:09.309Z,0
2018-01-15T02:04:09.571Z,0
2018-01-15T02:05:09.632Z,0
2018-01-15T02:06:09.599Z,0
2018-01-15T02:07:09.609Z,0
2018-01-15T02:08:09.359Z,0
2018-01-15T02:09:09.111Z,0
2018-01-15T02:10:24.063Z,0
2018-01-15T02:11:09.421Z,0
2018-01-15T02:12:09.432Z,0
2018-01-15T02:13:09.681Z,0
2018-01-15T02:14:09.801Z,0
2018-01-15T02:15:24.109Z,0
2018-01-15T02:16:09.479Z,0
2018-01-15T02:18:09.752Z,0
2018-01-15T02:19:09.732Z,0
2018-01-15T02:20:09.503Z,0
2018-01-15T02:21:09.528Z,0
2018-01-15T02:22:09.512Z,0
2018-01-15T02:23:09.540Z,0
2018-01-15T02:25:09.808Z,0
2018-01-15T02:26:24.264Z,0
2018-01-15T02:27:09.832Z,0
2018-01-15T02:28:09.863Z,0
2018-01-15T02:29:09.882Z,0
2018-01-15T02:30:09.599Z,0
2018-01-15T02:31:24.288Z,0
2018-01-15T02:32:09.867Z,0
2018-01-15T02:33:09.671Z,0
2018-01-15T02:34:09.912Z,0
2018-01-15T02:35:24.706Z,0
2018-01-15T02:36:09.661Z,0
2018-01-15T02:37:09.941Z,0
2018-01-15T02:38:09.729Z,0
2018-01-15T02:39:24.655Z,0
2018-01-15T02:40:09.717Z,0
2018-01-15T02:41:09.991Z,0
2018-01-15T02:42:24.678Z,0
2018-01-15T02:43:09.522Z,0
2018-01-15T02:44:09.772Z,0
2018-01-15T02:45:09.557Z,0
2018-01-15T02:46:10.066Z,0
2018-01-15T02:47:39.420Z,0
2018-01-15T02:48:10.060Z,0
2018-01-15T02:49:09.830Z,0
2018-01-15T02:50:09.866Z,0
2018-01-15T02:51:09.832Z,0
2018-01-15T02:52:09.878Z,0
2018-01-15T02:53:10.208Z,0
2018-01-15T02:54:09.872Z,0
2018-01-15T02:55:10.155Z,0
2018-01-15T02:56:09.896Z,0
2018-01-15T02:57:10.196Z,0
2018-01-15T02:58:09.686Z,0
2018-01-15T02:59:10.198Z,0
2018-01-15T03:00:09.948Z,0
2018-01-15T03:01:09.447Z,0
2018-01-15T03:02:09.733Z,0
2018-01-15T03:03:24.922Z,0
2018-01-15T03:04:10.247Z,0
2018-01-15T03:05:09.743Z,0
2018-01-15T03:06:10.001Z,0
2018-01-15T03:07:10.036Z,0
2018-01-15T03:08:10.044Z,0
2018-01-15T03:09:10.093Z,0
2018-01-15T03:10:10.321Z,0
2018-01-15T03:11:25.014Z,0
2018-01-15T03:12:10.104Z,0
2018-01-15T03:13:10.349Z,0
2018-01-15T03:15:09.883Z,0
2018-01-15T03:16:10.133Z,0
2018-01-15T03:17:10.148Z,0
2018-01-15T03:18:24.854Z,0
2018-01-15T03:19:10.179Z,0
2018-01-15T03:20:10.431Z,0
2018-01-15T03:21:10.428Z,0
2018-01-15T03:22:09.956Z,0
2018-01-15T03:23:10.315Z,0
2018-01-15T03:24:10.499Z,0
2018-01-15T03:25:10.242Z,0
2018-01-15T03:26:10.523Z,0
2018-01-15T03:27:10.237Z,0
2018-01-15T03:28:24.962Z,0
2018-01-15T03:29:10.015Z,0
2018-01-15T03:30:10.542Z,0
2018-01-15T03:31:10.591Z,0
2018-01-15T03:32:10.553Z,0
2018-01-15T03:33:10.589Z,0
2018-01-15T03:34:10.083Z,0
2018-01-15T03:35:09.855Z,0
2018-01-15T03:36:10.622Z,0
2018-01-15T03:37:10.664Z,0
2018-01-15T03:38:10.386Z,0
2018-01-15T03:39:10.402Z,0
2018-01-15T03:40:10.387Z,0
2018-01-15T03:41:25.359Z,0
2018-01-15T03:42:10.412Z,0
2018-01-15T03:43:25.099Z,0
2018-01-15T03:44:10.704Z,0
2018-01-15T03:45:10.442Z,0
2018-01-15T03:46:10.754Z,0
2018-01-15T03:47:10.769Z,0
2018-01-15T03:48:10.498Z,0
2018-01-15T03:49:10.522Z,0
2018-01-15T03:50:25.454Z,0
2018-01-15T03:51:10.528Z,0
2018-01-15T03:52:10.289Z,0
2018-01-15T03:53:10.924Z,0
2018-01-15T03:54:10.589Z,0
2018-01-15T03:55:10.589Z,0
2018-01-15T03:56:10.926Z,0
2018-01-15T03:57:10.610Z,0
2018-01-15T03:58:10.881Z,0
2018-01-15T03:59:10.355Z,0
2018-01-15T04:00:10.877Z,0
2018-01-15T04:01:10.885Z,0
2018-01-15T04:02:10.920Z,0
2018-01-15T04:03:25.578Z,0
2018-01-15T04:04:10.675Z,0
2018-01-15T04:05:10.945Z,0
2018-01-15T04:06:25.621Z,0
2018-01-15T04:07:10.480Z,0
2018-01-15T04:08:11.000Z,0
2018-01-15T04:09:11.016Z,0
2018-01-15T04:10:10.478Z,0
2018-01-15T04:11:10.795Z,0
2018-01-15T04:12:10.515Z,0
2018-01-15T04:13:10.797Z,0
2018-01-15T04:14:11.046Z,0
2018-01-15T04:15:10.553Z,0
2018-01-15T04:16:10.609Z,0
2018-01-15T04:17:10.831Z,0
2018-01-15T04:18:25.771Z,0
2018-01-15T04:19:11.102Z,0
2018-01-15T04:20:11.132Z,0
2018-01-15T04:21:25.804Z,0
2018-01-15T04:23:10.926Z,0
2018-01-15T04:24:10.910Z,0
2018-01-15T04:25:10.896Z,0
2018-01-15T04:26:25.862Z,0
2018-01-15T04:27:11.172Z,0
2018-01-15T04:28:10.946Z,0
2018-01-15T04:29:11.233Z,0
2018-01-15T04:30:10.957Z,0
2018-01-15T04:31:11.274Z,0
2018-01-15T04:32:25.909Z,0
2018-01-15T04:33:11.264Z,0
2018-01-15T04:34:11.281Z,0
2018-01-15T04:35:10.841Z,0
2018-01-15T04:36:11.277Z,0
2018-01-15T04:37:11.054Z,0
2018-01-15T04:38:25.744Z,0
2018-01-15T04:39:11.082Z,0
2018-01-15T04:40:11.345Z,0
2018-01-15T04:41:11.152Z,0
2018-01-15T04:42:11.165Z,0
2018-01-15T04:43:11.352Z,0
2018-01-15T04:44:11.424Z,0
2018-01-15T04:45:11.435Z,0
2018-01-15T04:46:10.657Z,0
2018-01-15T04:47:11.404Z,0
2018-01-15T04:48:11.185Z,0
2018-01-15T04:49:11.175Z,0
2018-01-15T04:50:11.518Z,0
2018-01-15T04:51:26.131Z,0
2018-01-15T04:52:11.496Z,0
2018-01-15T04:53:26.144Z,0
2018-01-15T04:54:11.523Z,0
2018-01-15T04:55:11.533Z,0
2018-01-15T04:56:25.950Z,0
2018-01-15T04:57:11.555Z,0
2018-01-15T04:58:11.546Z,0
2018-01-15T04:59:11.288Z,0
2018-01-15T05:00:11.552Z,0
2018-01-15T05:01:11.581Z,0
2018-01-15T05:02:11.614Z,0
2018-01-15T05:03:11.335Z,0
2018-01-15T05:04:11.468Z,0
2018-01-15T05:05:11.432Z,0
2018-01-15T05:07:11.396Z,0
2018-01-15T05:08:11.682Z,0
2018-01-15T05:09:11.691Z,0
2018-01-15T05:10:11.440Z,0
2018-01-15T05:11:11.698Z,0
2018-01-15T05:12:26.406Z,0
2018-01-15T05:14:11.233Z,0
2018-01-15T05:15:26.182Z,0
2018-01-15T05:16:11.767Z,0
2018-01-15T05:17:11.546Z,0
2018-01-15T05:18:26.213Z,0
2018-01-15T05:19:26.481Z,0
2018-01-15T05:20:11.546Z,0
2018-01-15T05:21:11.809Z,0
2018-01-15T05:22:11.796Z,0
2018-01-15T05:23:11.589Z,0
2018-01-15T05:24:11.617Z,0
2018-01-15T05:25:26.292Z,0
2018-01-15T05:26:11.622Z,0
2018-01-15T05:27:11.920Z,0
2018-01-15T05:28:11.675Z,0
2018-01-15T05:29:11.649Z,0
2018-01-15T05:30:11.932Z,0
2018-01-15T05:31:11.906Z,0
2018-01-15T05:32:11.733Z,0
2018-01-15T05:33:11.989Z,0
2018-01-15T05:34:11.718Z,0
2018-01-15T05:35:11.959Z,0
2018-01-15T05:36:11.478Z,0
2018-01-15T05:37:11.764Z,0
2018-01-15T05:38:11.833Z,0
2018-01-15T05:39:12.020Z,0
2018-01-15T05:40:12.062Z,0
2018-01-15T05:41:26.747Z,0
2018-01-15T05:42:11.799Z,0
2018-01-15T05:43:11.809Z,0
2018-01-15T05:44:26.503Z,0
2018-01-15T05:45:12.078Z,0
2018-01-15T05:47:12.098Z,0
2018-01-15T05:48:11.847Z,0
2018-01-15T05:49:11.872Z,0
2018-01-15T05:50:12.123Z,0
2018-01-15T05:51:11.661Z,0
2018-01-15T05:52:12.152Z,0
2018-01-15T05:54:12.194Z,0
2018-01-15T05:55:12.206Z,0
2018-01-15T05:56:12.210Z,0
2018-01-15T05:57:26.903Z,0
2018-01-15T05:58:11.751Z,0
2018-01-15T05:59:11.733Z,0
2018-01-15T06:00:12.264Z,0
2018-01-15T06:01:12.290Z,0
2018-01-15T06:02:12.043Z,0
2018-01-15T06:03:26.706Z,0
2018-01-15T06:04:12.340Z,0
2018-01-15T06:05:12.316Z,0
2018-01-15T06:06:12.311Z,0
2018-01-15T06:07:12.405Z,0
2018-01-15T06:08:12.355Z,0
2018-01-15T06:09:26.906Z,0
2018-01-15T06:10:12.380Z,0
2018-01-15T06:11:12.374Z,0
2018-01-15T06:12:12.139Z,0
2018-01-15T06:13:27.093Z,0
2018-01-15T06:14:12.154Z,0
2018-01-15T06:15:12.203Z,0
2018-01-15T06:17:11.951Z,0
2018-01-15T06:18:12.206Z,0
2018-01-15T06:20:11.977Z,0
2018-01-15T06:21:12.552Z,0
2018-01-15T06:22:12.515Z,0
2018-01-15T06:23:26.972Z,0
2018-01-15T06:24:12.542Z,0
2018-01-15T06:25:12.061Z,0
2018-01-15T06:27:12.333Z,0
2018-01-15T06:28:41.686Z,0
2018-01-15T06:30:12.377Z,0
2018-01-15T06:31:12.633Z,0
2018-01-15T06:32:12.364Z,0
2018-01-15T06:34:12.431Z,0
2018-01-15T06:35:12.396Z,4
2018-01-15T06:36:12.185Z,4
2018-01-15T06:37:12.742Z,0
2018-01-15T06:38:12.457Z,0
2018-01-15T06:39:12.700Z,4
2018-01-15T06:40:27.390Z,4
2018-01-15T06:41:12.760Z,4
2018-01-15T06:42:12.496Z,4
2018-01-15T06:43:12.749Z,4
2018-01-15T06:44:12.769Z,8
2018-01-15T06:45:12.558Z,8
2018-01-15T06:46:12.827Z,12
2018-01-15T06:47:12.816Z,16
2018-01-15T06:48:12.589Z,20
2018-01-15T06:49:12.577Z,28
2018-01-15T06:50:27.264Z,44
2018-01-15T06:52:12.359Z,60
2018-01-15T06:53:12.622Z,68
2018-01-15T06:54:12.642Z,80
2018-01-15T06:55:27.583Z,96
2018-01-15T06:56:12.671Z,100
2018-01-15T06:57:12.945Z,116
2018-01-15T06:58:12.458Z,128
2018-01-15T06:59:27.408Z,148
2018-01-15T07:00:27.141Z,160
2018-01-15T07:01:12.469Z,172
2018-01-15T07:02:13.025Z,184
2018-01-15T07:03:12.730Z,200
2018-01-15T07:04:12.744Z,216
2018-01-15T07:05:13.041Z,236
2018-01-15T07:06:13.057Z,256
2018-01-15T07:07:12.795Z,276
2018-01-15T07:08:13.053Z,296
2018-01-15T07:09:27.516Z,324
2018-01-15T07:10:12.588Z,340
2018-01-15T07:11:12.859Z,364
2018-01-15T07:12:12.873Z,392
2018-01-15T07:13:12.863Z,416
2018-01-15T07:14:12.657Z,448
2018-01-15T07:16:27.812Z,516
2018-01-15T07:17:13.253Z,540
2018-01-15T07:19:12.928Z,604
2018-01-15T07:20:12.930Z,636
2018-01-15T07:21:13.230Z,676
2018-01-15T07:22:13.249Z,708
2018-01-15T07:23:13.288Z,752
2018-01-15T07:25:13.238Z,828
2018-01-15T07:26:13.260Z,868
2018-01-15T07:27:13.282Z,916
2018-01-15T07:28:27.717Z,968
2018-01-15T07:30:13.295Z,1056
2018-01-15T07:31:13.324Z,1108
2018-01-15T07:32:27.761Z,1172
2018-01-15T07:33:13.079Z,1212
2018-01-15T07:34:12.856Z,1264
2018-01-15T07:35:13.382Z,1324
2018-01-15T07:36:13.131Z,1380
2018-01-15T07:37:13.397Z,1432
2018-01-15T07:38:12.879Z,1492
2018-01-15T07:39:13.162Z,1556
2018-01-15T07:40:13.423Z,1616
2018-01-15T07:41:13.181Z,1676
2018-01-15T07:42:13.452Z,1736
2018-01-15T07:44:27.888Z,1880
2018-01-15T07:45:13.244Z,1932
2018-01-15T07:46:13.600Z,1996
2018-01-15T07:47:13.003Z,2064
2018-01-15T07:48:28.226Z,2148
2018-01-15T07:50:13.566Z,2260
2018-01-15T07:52:13.625Z,2388
2018-01-15T07:53:28.018Z,2464
2018-01-15T07:54:13.321Z,2524
2018-01-15T07:55:13.621Z,2600
2018-01-15T07:56:13.107Z,2648
2018-01-15T07:57:13.646Z,2724
2018-01-15T07:58:13.619Z,2796
2018-01-15T08:00:13.640Z,2920
2018-01-15T08:01:13.440Z,3000
2018-01-15T08:02:13.656Z,3028
2018-01-15T08:03:43.051Z,3112
2018-01-15T08:04:13.473Z,3144
2018-01-15T08:05:13.531Z,3184
2018-01-15T08:06:13.742Z,3240
2018-01-15T08:08:13.774Z,3364
2018-01-15T08:10:13.514Z,3464
2018-01-15T08:11:13.806Z,3488
2018-01-15T08:12:13.793Z,3520
2018-01-15T08:13:13.804Z,3572
2018-01-15T08:14:13.296Z,3592
2018-01-15T08:15:13.850Z,3616
2018-01-15T08:16:13.890Z,3720
2018-01-15T08:17:13.634Z,3780
2018-01-15T08:18:13.620Z,3752
2018-01-15T08:19:13.852Z,3804
2018-01-15T08:20:13.888Z,3872
2018-01-15T08:21:13.629Z,3900
2018-01-15T08:22:13.399Z,3920
2018-01-15T08:24:13.912Z,3988
2018-01-15T08:25:28.649Z,4068
2018-01-15T08:26:13.954Z,4108
2018-01-15T08:27:13.962Z,4140
2018-01-15T08:28:13.732Z,4192
2018-01-15T08:29:13.988Z,4216
2018-01-15T08:31:14.030Z,4372
2018-01-15T08:32:13.772Z,4580
2018-01-15T08:33:14.081Z,4816
2018-01-15T08:34:14.134Z,5096
2018-01-15T08:35:28.729Z,5396
2018-01-15T08:36:14.068Z,5500
2018-01-15T08:37:14.071Z,5652
2018-01-15T08:39:14.119Z,5768
2018-01-15T08:40:13.903Z,5780
2018-01-15T08:41:14.134Z,5736
2018-01-15T08:42:14.144Z,5828
2018-01-15T08:43:28.836Z,5900
2018-01-15T08:44:28.837Z,5900
2018-01-15T08:45:14.314Z,5900
2018-01-15T08:46:13.706Z,5916
2018-01-15T08:47:13.944Z,5968
2018-01-15T08:48:13.711Z,5976
2018-01-15T08:49:14.040Z,5976
2018-01-15T08:50:14.243Z,6032
2018-01-15T08:51:28.936Z,6072
2018-01-15T08:52:14.294Z,6112
2018-01-15T08:53:14.311Z,6112
2018-01-15T08:54:14.289Z,6076
2018-01-15T08:55:14.324Z,6152
2018-01-15T08:56:14.307Z,6200
2018-01-15T08:57:14.350Z,6140
2018-01-15T08:58:14.366Z,6132
2018-01-15T08:59:13.865Z,6164
2018-01-15T09:00:28.776Z,6152
2018-01-15T09:01:13.943Z,6172
2018-01-15T09:02:14.161Z,6200
2018-01-15T09:03:14.128Z,6180
2018-01-15T09:04:28.831Z,6200
2018-01-15T09:06:13.949Z,6064
2018-01-15T09:07:29.149Z,6268
2018-01-15T09:08:14.504Z,6292
2018-01-15T09:09:14.452Z,6280
2018-01-15T09:10:14.232Z,6296
2018-01-15T09:11:14.497Z,6356
2018-01-15T09:12:14.248Z,6344
2018-01-15T09:13:14.507Z,6328
2018-01-15T09:14:14.542Z,6384
2018-01-15T09:15:14.312Z,6336
2018-01-15T09:16:14.350Z,6368
2018-01-15T09:17:14.587Z,6336
2018-01-15T09:18:14.609Z,6380
2018-01-15T09:19:29.278Z,6404
2018-01-15T09:20:14.617Z,6436
2018-01-15T09:21:29.289Z,6452
2018-01-15T09:23:29.328Z,6428
2018-01-15T09:24:14.661Z,6412
2018-01-15T09:25:14.438Z,6460
2018-01-15T09:26:14.437Z,6428
2018-01-15T09:27:14.687Z,6416
2018-01-15T09:28:14.715Z,6412
2018-01-15T09:29:14.837Z,6440
2018-01-15T09:30:14.746Z,6404
2018-01-15T09:31:14.755Z,6404
2018-01-15T09:32:14.519Z,6388
2018-01-15T09:33:14.791Z,6408
2018-01-15T09:34:14.837Z,6332
2018-01-15T09:35:14.568Z,6380
2018-01-15T09:36:14.546Z,6392
2018-01-15T09:37:14.873Z,6380
2018-01-15T09:38:43.942Z,6380
2018-01-15T09:39:14.874Z,6236
2018-01-15T09:40:14.619Z,6380
2018-01-15T09:41:14.900Z,6380
2018-01-15T09:42:14.647Z,6408
2018-01-15T09:43:14.988Z,6364
2018-01-15T09:44:14.906Z,6428
2018-01-15T09:45:14.921Z,6368
2018-01-15T09:46:29.357Z,6328
2018-01-15T09:47:14.446Z,6364
2018-01-15T09:48:14.969Z,6360
2018-01-15T09:49:15.033Z,6340
2018-01-15T09:50:29.426Z,6336
2018-01-15T09:51:15.043Z,6372
2018-01-15T09:52:15.059Z,6356
2018-01-15T09:53:15.049Z,6396
2018-01-15T09:54:29.492Z,6416
2018-01-15T09:55:14.814Z,6416
2018-01-15T09:56:14.849Z,6392
2018-01-15T09:57:15.163Z,6448
2018-01-15T09:58:15.135Z,6416
2018-01-15T09:59:29.882Z,6416
2018-01-15T10:00:15.145Z,5976
2018-01-15T10:02:15.180Z,6416
2018-01-15T10:03:14.924Z,6408
2018-01-15T10:04:14.674Z,6480
2018-01-15T10:05:14.954Z,6488
2018-01-15T10:06:29.876Z,6468
2018-01-15T10:07:15.079Z,6480
2018-01-15T10:09:29.413Z,6528
2018-01-15T10:10:29.935Z,6456
2018-01-15T10:11:15.381Z,6360
2018-01-15T10:12:15.042Z,5668
2018-01-15T10:13:15.341Z,6132
2018-01-15T10:14:15.082Z,5988
2018-01-15T10:15:15.331Z,5816
2018-01-15T10:16:15.404Z,5664
2018-01-15T10:17:14.840Z,5532
2018-01-15T10:18:15.409Z,5376
2018-01-15T10:19:15.400Z,5260
2018-01-15T10:20:15.391Z,5180
2018-01-15T10:21:15.453Z,5072
2018-01-15T10:22:30.105Z,4984
2018-01-15T10:23:15.465Z,4936
2018-01-15T10:24:14.933Z,4848
2018-01-15T10:25:30.131Z,4772
2018-01-15T10:26:30.140Z,4700
2018-01-15T10:27:15.512Z,4664
2018-01-15T10:28:15.278Z,4624
2018-01-15T10:29:15.504Z,4552
2018-01-15T10:31:15.046Z,4476
2018-01-15T10:32:15.569Z,4464
2018-01-15T10:33:15.323Z,4436
2018-01-15T10:34:15.596Z,4404
2018-01-15T10:35:15.591Z,4404
2018-01-15T10:36:15.361Z,4400
2018-01-15T10:37:15.636Z,4396
2018-01-15T10:38:30.312Z,4412
2018-01-15T10:39:30.366Z,4400
2018-01-15T10:40:15.409Z,4384
2018-01-15T10:41:15.688Z,4384
2018-01-15T10:42:30.361Z,4400
2018-01-15T10:43:15.707Z,4400
2018-01-15T10:44:15.474Z,4388
2018-01-15T10:45:15.723Z,4372
2018-01-15T10:46:15.258Z,4356
2018-01-15T10:47:15.773Z,4356
2018-01-15T10:48:15.773Z,4356
2018-01-15T10:49:30.578Z,4348
2018-01-15T10:50:15.816Z,4348
2018-01-15T10:51:30.513Z,4344
2018-01-15T10:52:15.869Z,4340
2018-01-15T10:53:30.535Z,4308
2018-01-15T10:54:15.937Z,4300
2018-01-15T10:55:15.685Z,4308
2018-01-15T10:56:15.659Z,4312
2018-01-15T10:58:30.577Z,4308
2018-01-15T10:59:15.777Z,4300
2018-01-15T11:00:15.944Z,4304
2018-01-15T11:01:15.966Z,4320
2018-01-15T11:02:16.020Z,4312
2018-01-15T11:03:30.432Z,4304
2018-01-15T11:04:15.983Z,4296
2018-01-15T11:05:16.032Z,4284
2018-01-15T11:06:15.800Z,4280
2018-01-15T11:07:16.025Z,4280
2018-01-15T11:08:15.825Z,4272
2018-01-15T11:09:15.806Z,4276
2018-01-15T11:10:16.083Z,4264
2018-01-15T11:11:15.864Z,4260
2018-01-15T11:12:16.219Z,4256
2018-01-15T11:13:30.890Z,4244
2018-01-15T11:14:16.213Z,4228
2018-01-15T11:15:15.898Z,4212
2018-01-15T11:16:30.603Z,4216
2018-01-15T11:17:16.164Z,4216
2018-01-15T11:18:16.216Z,4204
2018-01-15T11:19:15.955Z,4192
2018-01-15T11:20:15.971Z,4188
2018-01-15T11:21:15.973Z,4196
2018-01-15T11:22:16.255Z,4180
2018-01-15T11:24:16.285Z,4188
2018-01-15T11:25:16.268Z,4192
2018-01-15T11:26:16.318Z,4180
2018-01-15T11:27:16.079Z,4188
2018-01-15T11:28:16.331Z,4196
2018-01-15T11:29:16.326Z,4200
2018-01-15T11:30:31.024Z,4192
2018-01-15T11:31:16.399Z,4180
2018-01-15T11:32:16.398Z,4168
2018-01-15T11:33:16.380Z,4176
2018-01-15T11:34:16.425Z,4172
2018-01-15T11:35:30.863Z,4152
2018-01-15T11:36:16.193Z,4144
2018-01-15T11:38:31.138Z,4132
2018-01-15T11:39:31.170Z,4140
2018-01-15T11:41:16.535Z,4136
2018-01-15T11:42:16.278Z,4128
2018-01-15T11:43:16.314Z,4128
2018-01-15T11:44:16.578Z,4132
2018-01-15T11:46:31.242Z,4136
2018-01-15T11:47:16.329Z,4132
2018-01-15T11:48:16.666Z,4136
2018-01-15T11:49:16.732Z,4120
2018-01-15T11:50:16.631Z,4116
2018-01-15T11:51:16.418Z,4112
2018-01-15T11:52:16.685Z,4096
2018-01-15T11:53:16.694Z,4092
2018-01-15T11:54:16.742Z,4100
2018-01-15T11:55:16.752Z,4080
2018-01-15T11:56:16.459Z,4096
2018-01-15T11:57:31.420Z,4084
2018-01-15T11:58:16.548Z,4084
2018-01-15T11:59:16.574Z,4076
2018-01-15T12:00:16.531Z,4076
2018-01-15T12:01:45.893Z,4064
2018-01-15T12:02:16.817Z,4060
2018-01-15T12:04:16.844Z,4044
2018-01-15T12:05:16.351Z,4044
2018-01-15T12:06:16.856Z,4032
2018-01-15T12:07:16.632Z,4040
2018-01-15T12:10:16.682Z,4020
2018-01-15T12:11:16.711Z,4012
2018-01-15T12:12:16.701Z,4008
2018-01-15T12:14:17.073Z,3984
2018-01-15T12:15:16.743Z,3988
2018-01-15T12:16:17.023Z,3972
2018-01-15T12:17:31.475Z,4000
2018-01-15T12:19:16.850Z,4008
2018-01-15T12:20:17.093Z,3984
2018-01-15T12:21:17.095Z,3940
2018-01-15T12:22:16.878Z,3940
2018-01-15T12:23:17.099Z,3940
2018-01-15T12:24:16.898Z,3952
2018-01-15T12:25:31.828Z,3956
2018-01-15T12:26:17.190Z,3940
2018-01-15T12:27:17.155Z,3924
2018-01-15T12:28:31.868Z,3944
2018-01-15T12:29:31.882Z,3952
2018-01-15T12:31:17.264Z,3932
2018-01-15T12:32:17.252Z,3916
2018-01-15T12:33:31.931Z,3908
2018-01-15T12:34:17.024Z,3912
2018-01-15T12:36:17.332Z,3920
2018-01-15T12:37:17.190Z,3928
2018-01-15T12:38:17.075Z,3924
2018-01-15T12:39:17.337Z,3924
2018-01-15T12:40:17.384Z,3916
2018-01-15T12:41:17.124Z,3900
2018-01-15T12:42:17.127Z,3884
2018-01-15T12:43:17.148Z,3828
2018-01-15T12:44:16.930Z,3816
2018-01-15T12:45:17.414Z,3868
2018-01-15T12:46:17.181Z,3852
2018-01-15T12:47:17.200Z,3804
2018-01-15T12:49:17.502Z,3680
2018-01-15T12:50:17.278Z,3772
2018-01-15T12:51:31.940Z,3748
2018-01-15T12:52:17.272Z,3712
2018-01-15T12:53:17.565Z,3716
2018-01-15T12:54:17.308Z,3404
2018-01-15T12:55:17.567Z,3060
2018-01-15T12:56:17.331Z,3176
2018-01-15T12:57:17.593Z,3332
2018-01-15T12:58:17.359Z,2988
2018-01-15T12:59:17.394Z,2928
2018-01-15T13:00:17.664Z,2940
2018-01-15T13:01:17.177Z,2968
2018-01-15T13:02:17.672Z,3000
2018-01-15T13:03:17.437Z,3088
2018-01-15T13:05:17.489Z,3304
2018-01-15T13:06:17.475Z,3364
2018-01-15T13:07:17.764Z,3376
2018-01-15T13:08:32.460Z,3380
2018-01-15T13:09:17.544Z,3364
2018-01-15T13:10:17.823Z,3360
2018-01-15T13:11:17.748Z,3360
2018-01-15T13:12:17.856Z,3328
2018-01-15T13:13:17.710Z,3280
2018-01-15T13:14:17.590Z,3264
2018-01-15T13:15:17.885Z,3240
2018-01-15T13:16:17.879Z,3252
2018-01-15T13:17:17.909Z,3296
2018-01-15T13:18:17.693Z,4312
2018-01-15T13:19:32.353Z,4408
2018-01-15T13:20:32.613Z,4448
2018-01-15T13:22:17.471Z,4408
2018-01-15T13:23:32.442Z,4240
2018-01-15T13:24:17.757Z,4072
2018-01-15T13:25:18.046Z,3880
2018-01-15T13:26:17.899Z,3712
2018-01-15T13:27:18.038Z,3600
2018-01-15T13:28:17.577Z,3548
2018-01-15T13:29:18.085Z,3504
2018-01-15T13:30:17.886Z,3468
2018-01-15T13:31:18.104Z,3416
2018-01-15T13:32:17.619Z,3364
2018-01-15T13:33:18.123Z,3320
2018-01-15T13:34:17.928Z,3384
2018-01-15T13:35:17.705Z,2548
2018-01-15T13:36:32.867Z,2440
2018-01-15T13:37:18.214Z,2404
2018-01-15T13:38:18.207Z,2356
2018-01-15T13:39:18.235Z,2300
2018-01-15T13:40:18.262Z,2292
2018-01-15T13:41:18.268Z,2332
2018-01-15T13:42:18.290Z,2392
2018-01-15T13:43:18.043Z,2416
2018-01-15T13:45:33.011Z,2436
2018-01-15T13:46:32.768Z,2440
2018-01-15T13:47:18.370Z,2432
2018-01-15T13:48:32.553Z,2392
2018-01-15T13:49:33.060Z,2348
2018-01-15T13:50:18.394Z,2284
2018-01-15T13:51:18.435Z,2220
2018-01-15T13:53:18.432Z,2088
2018-01-15T13:54:18.227Z,2028
2018-01-15T13:55:33.143Z,1972
2018-01-15T13:56:18.484Z,1928
2018-01-15T13:57:18.255Z,1888
2018-01-15T13:58:32.949Z,1824
2018-01-15T13:59:18.539Z,1804
2018-01-15T14:00:18.318Z,1788
2018-01-15T14:01:18.288Z,1764
2018-01-15T14:02:18.314Z,1756
2018-01-15T14:03:18.337Z,1732
2018-01-15T14:04:33.281Z,1720
2018-01-15T14:05:18.348Z,1692
2018-01-15T14:06:18.387Z,1672
2018-01-15T14:08:32.841Z,1704
2018-01-15T14:09:18.447Z,1856
2018-01-15T14:10:18.715Z,1660
2018-01-15T14:11:18.203Z,1628
2018-01-15T14:12:18.771Z,1620
2018-01-15T14:13:18.736Z,1612
2018-01-15T14:14:33.458Z,1600
2018-01-15T14:15:18.531Z,1580
2018-01-15T14:16:18.526Z,1572
2018-01-15T14:17:18.527Z,1540
2018-01-15T14:18:18.542Z,1512
2018-01-15T14:19:18.816Z,1496
2018-01-15T14:20:18.677Z,1484
2018-01-15T14:21:18.862Z,1444
2018-01-15T14:22:18.876Z,1404
2018-01-15T14:23:33.568Z,1336
2018-01-15T14:24:33.332Z,1316
2018-01-15T14:25:18.919Z,1300
2018-01-15T14:26:18.943Z,1276
2018-01-15T14:27:18.942Z,1244
2018-01-15T14:28:18.731Z,1196
2018-01-15T14:29:18.964Z,1156
2018-01-15T14:30:33.405Z,1120
2018-01-15T14:31:19.005Z,1092
2018-01-15T14:32:18.859Z,1056
2018-01-15T14:33:18.776Z,1024
2018-01-15T14:34:18.809Z,984
2018-01-15T14:35:33.546Z,944
2018-01-15T14:36:18.859Z,936
2018-01-15T14:37:18.895Z,928
2018-01-15T14:38:18.867Z,916
2018-01-15T14:39:18.621Z,908
2018-01-15T14:40:19.505Z,904
2018-01-15T14:41:19.156Z,892
2018-01-15T14:42:19.184Z,868
2018-01-15T14:43:19.194Z,852
2018-01-15T14:44:19.194Z,828
2018-01-15T14:45:19.242Z,812
2018-01-15T14:46:19.218Z,792
2018-01-15T14:47:18.990Z,772
2018-01-15T14:48:18.981Z,744
2018-01-15T14:49:19.356Z,720
2018-01-15T14:50:33.961Z,692
2018-01-15T14:51:19.033Z,672
2018-01-15T14:52:33.968Z,640
2018-01-15T14:53:19.338Z,624
2018-01-15T14:54:18.833Z,608
2018-01-15T14:55:34.035Z,596
2018-01-15T14:56:19.368Z,592
2018-01-15T14:57:19.403Z,596